Terminal Aerodrome Forecast
Issued by NWS

Home | Current Version | Previous Version | Text Only | Print | Product List | Glossary On
Versions: 1 2 3 4 5 6 7 8 9 10 11 12 13 14 15 16
000
FTUS41 KBTV 241125
TAFMSS
TAF
KMSS 241125Z 2412/2512 VRB03KT 3SM -SN BR OVC020
      TEMPO 2412/2414 1/2SM SN FZFG OVC007
     FM241400 19005KT P6SM VCSH OVC030
      TEMPO 2414/2417 2SM -SN BR OVC010
     FM241700 18010KT 3SM -RA BR OVC025
     FM242100 23010KT 3SM -RA BR OVC015
     FM250400 28005KT P6SM VCSH OVC025
     FM250800 02006KT P6SM OVC035=

USA.gov is the U.S. government's official web portal to all federal, state and local government web resources and services.